| 5/5/2026 | Geneos Wealth Management Inc. | 21,232 | $1.05M | 0.0% | +8.7% | 0.012% | |
| 5/5/2026 | NFSG Corp | 21,964 | $1.09M | 0.2% | +60.8% | 0.013% | |
| 5/5/2026 | Livforsakringsbolaget Skandia Omsesidigt | 4,448 | $221K | 0.0% | +456.0% | 0.003% | |
| 5/5/2026 | Sanctuary Advisors LLC | 36,430 | $1.81M | 0.0% | +2.3% | 0.021% | |
| 5/5/2026 | Sigma Planning Corp | 8,780 | $435K | 0.0% | +22.4% | 0.005% | |
| 5/4/2026 | Principal Financial Group Inc. | 19,309 | $958K | 0.0% | +5.0% | 0.011% | |
| 5/4/2026 | Tradewinds LLC. | 4,113 | $204K | 0.1% | -64.8% | 0.002% | |
| 5/2/2026 | Global Assets Advisory LLC | 9,570 | $475K | 0.1% | N/A | 0.006% | |
| 5/2/2026 | Arlington Capital Management Inc. | 49,490 | $2.45M | 1.4% | N/A | 0.028% | |
| 5/2/2026 | Diversify Wealth Management LLC | 5,885 | $292K | 0.0% | +8.8% | 0.003% | |
Get the Latest News and Ratings for OKLO and Related Stocks Enter your email address below to receive the latest news and analysts' ratings for Oklo and its competitors with MarketBeat's FREE daily newsletter.
|
| 5/1/2026 | Kaizen Financial Strategies | 7,895 | $392K | 0.2% | -4.2% | 0.005% | |
| 5/1/2026 | Citizens Financial Group Inc. RI | 18,704 | $928K | 0.0% | +1.0% | 0.011% | |
| 5/1/2026 | Fifth Third Bancorp | 4,792 | $238K | 0.0% | +18,330.8% | 0.003% | |
| 5/1/2026 | Triton Wealth Management PLLC | 14,760 | $734K | 0.3% | +1.3% | 0.008% | |
| 5/1/2026 | KLCM Advisors Inc. | 5,000 | $248K | 0.0% | -50.0% | 0.003% | |
| 4/30/2026 | Costello Asset Management INC | 500 | $25K | 0.0% | +66.7% | 0.000% | |
| 4/30/2026 | Stiles Financial Services Inc | 13,772 | $683K | 0.2% | +52.2% | 0.008% | |
| 4/30/2026 | Kestra Advisory Services LLC | 47,770 | $2.37M | 0.0% | +14.6% | 0.027% | |
| 4/30/2026 | Money Concepts Capital Corp | 8,223 | $408K | 0.0% | N/A | 0.005% | |
| 4/30/2026 | Sumitomo Mitsui Trust Group Inc. | 206,946 | $10.26M | 0.0% | -7.0% | 0.119% | |
| 4/30/2026 | Resona Asset Management Co. Ltd. | 33,936 | $1.66M | 0.0% | -1.8% | 0.020% | |
| 4/29/2026 | Meitav Investment House Ltd. | 14,700 | $729K | 0.0% | N/A | 0.008% | |
| 4/29/2026 | Swedbank AB | 10,592 | $525K | 0.0% | +3.4% | 0.006% | |
| 4/29/2026 | Walser Wealth Management Company A Ltd Liability Co | 11,643 | $577K | 0.3% | +284.3% | 0.007% | |
| 4/28/2026 | Abel Hall LLC | 4,389 | $218K | 0.0% | N/A | 0.003% | |
| 4/28/2026 | Ascentis Independent Advisors | 663 | $33K | 0.0% | N/A | 0.000% | |
| 4/28/2026 | AdvisorShares Investments LLC | 8,680 | $430K | 0.1% | N/A | 0.005% | |
| 4/28/2026 | Praxis Investment Management Inc. | 4,114 | $204K | 0.0% | +31.0% | 0.002% | |
| 4/28/2026 | Private Wealth Partners LLC | 7,000 | $347K | 0.0% | +16.7% | 0.004% | |
| 4/27/2026 | PFG Investments LLC | 8,509 | $422K | 0.0% | +76.8% | 0.005% | |
| 4/27/2026 | Private Advisor Group LLC | 114,026 | $5.66M | 0.0% | -22.7% | 0.066% | |
| 4/27/2026 | Leonteq Securities AG | 43,773 | $2.17M | 0.1% | +85.4% | 0.025% | |
| 4/27/2026 | Fideuram Intesa Sanpaolo Private Banking S.P.A. | 60,146 | $2.98M | 0.1% | +9,924.3% | 0.035% | |
| 4/25/2026 | Strs Ohio | 22,800 | $1.13M | 0.0% | +18.8% | 0.013% | |
| 4/24/2026 | Essex LLC | 4,989 | $247K | 0.0% | -6.8% | 0.003% | |
| 4/24/2026 | Tcfg Wealth Management LLC | 5,915 | $293K | 0.1% | -77.8% | 0.003% | |
| 4/24/2026 | IFM Investors Pty Ltd | 22,109 | $1.10M | 0.0% | +8.8% | 0.013% | |
| 4/23/2026 | Inspire Investing LLC | 2,390 | $119K | 0.0% | +40.5% | 0.001% | |
| 4/23/2026 | Intrua Financial LLC | 10,600 | $526K | 0.1% | -21.0% | 0.006% | |
| 4/23/2026 | Apollon Wealth Management LLC | 5,967 | $296K | 0.0% | +10.0% | 0.003% | |
|
| 4/23/2026 | Pasadena Private Wealth LLC | 4,512 | $224K | 0.0% | +16.1% | 0.003% | |
| 4/22/2026 | Patriot Financial Group Insurance Agency LLC | 17,198 | $853K | 0.0% | +189.3% | 0.010% | |
| 4/22/2026 | Janney Montgomery Scott LLC | 21,356 | $1.06M | 0.0% | +32.1% | 0.012% | |
| 4/22/2026 | MRA Advisory Group | 24,145 | $1.20M | 0.5% | +15.4% | 0.014% | |
| 4/22/2026 | Pictet Asset Management Holding SA | 65,242 | $3.23M | 0.0% | -49.1% | 0.038% | |
| 4/22/2026 | Sterling Capital Management LLC | 3,294 | $163K | 0.0% | -33.8% | 0.002% | |
| 4/20/2026 | Kestra Private Wealth Services LLC | 36,406 | $1.81M | 0.0% | +27.5% | 0.021% | |
| 4/20/2026 | OP Asset Management Ltd | 12,237 | $607K | 0.0% | N/A | 0.007% | |
| 4/20/2026 | Banque Cantonale Vaudoise | 7,857 | $390K | 0.0% | +56.4% | 0.005% | |
| 4/20/2026 | Focused Wealth Management Inc | 4,079 | $202K | 0.0% | N/A | 0.002% | |
| 4/18/2026 | Vermillion Wealth Management Inc. | 3,500 | $174K | 0.1% | +16.7% | 0.002% | |
| 4/17/2026 | Sara Bay Financial | 7,950 | $394K | 0.1% | +23.3% | 0.005% | |
| 4/17/2026 | Wealth Management Partners LLC | 16,370 | $812K | 0.2% | +10.5% | 0.009% | |
| 4/16/2026 | SG Americas Securities LLC | 87,838 | $4.36M | 0.0% | -27.3% | 0.051% | |
| 4/16/2026 | E. Ohman J or Asset Management AB | 2,000 | $99K | 0.0% | N/A | 0.001% | |
| 4/16/2026 | BI Asset Management Fondsmaeglerselskab A S | 21,014 | $1.04M | 0.0% | N/A | 0.012% | |
| 4/15/2026 | Nations Financial Group Inc. IA ADV | 9,559 | $474K | 0.0% | +7.4% | 0.006% | |
| 3/20/2026 | Hsbc Holdings PLC | 112,372 | $8.06M | 0.0% | +1,184.4% | 0.065% | |
| 3/17/2026 | Rockefeller Capital Management L.P. | 171,128 | $12.28M | 0.0% | +427.1% | 0.110% | |
| 3/9/2026 | Corient Private Wealth LLC | 206,056 | $14.79M | 0.0% | -7.9% | 0.132% | |
| 3/6/2026 | Hsbc Holdings PLC | 112,372 | $8.06M | 0.0% | +1,184.4% | 0.072% | |
| 3/4/2026 | SHP Wealth Management | 452 | $32K | 0.0% | N/A | 0.000% | |
| 3/3/2026 | Tulsa Wealth Advisors INC | 4,632 | $332K | 0.1% | N/A | 0.003% | |
| 3/3/2026 | Caitong International Asset Management Co. Ltd | 27,626 | $1.98M | 0.5% | -31.1% | 0.018% | |
| 2/27/2026 | Strategic Investment Solutions Inc. IL | 1,488 | $107K | 0.0% | +45.5% | 0.001% | |
| 2/26/2026 | Banque Transatlantique SA | 985 | $71K | 0.0% | -96.5% | 0.001% | |
| 2/25/2026 | Tempo Wealth LLC | 3,349 | $240K | 0.0% | N/A | 0.002% | |
| 2/24/2026 | Pacer Advisors Inc. | 27,346 | $1.96M | 0.0% | N/A | 0.018% | |
| 2/23/2026 | Walser Wealth Management Company A Ltd Liability Co | 3,030 | $217K | 0.1% | N/A | 0.002% | |
| 2/23/2026 | Virtu Financial LLC | 113,511 | $8.15M | 0.3% | +21.7% | 0.073% | |
| 2/19/2026 | Mcguire Capital Advisors Inc. | 21,806 | $1.57M | 1.0% | N/A | 0.014% | |
| 2/19/2026 | T. Rowe Price Investment Management Inc. | 160,458 | $11.52M | 0.0% | -74.3% | 0.103% | |
| 2/19/2026 | Compound Planning Inc. | 45,238 | $3.25M | 0.1% | -83.2% | 0.029% | |
| 2/19/2026 | Invesco Ltd. | 113,597 | $8.15M | 0.0% | -48.1% | 0.073% | |
| 2/19/2026 | Corient Private Wealth LLC | 241,436 | $17.33M | 0.0% | +7.9% | 0.155% | |
| 2/19/2026 | CrossGen Wealth LLC | 628 | $45K | 0.0% | N/A | 0.000% | |
| 2/18/2026 | Ameriflex Group Inc. | 1,280 | $92K | 0.0% | -50.0% | 0.001% | |
| 2/18/2026 | Mercer Global Advisors Inc. ADV | 20,995 | $1.51M | 0.0% | -27.7% | 0.013% | |
| 2/18/2026 | Delta Global Management LP | 30,747 | $2.21M | 0.1% | N/A | 0.020% | |
| 2/18/2026 | EP Wealth Advisors LLC | 3,103 | $223K | 0.0% | N/A | 0.002% | |
| 2/18/2026 | Mackenzie Financial Corp | 14,631 | $1.05M | 0.0% | +183.4% | 0.009% | |
| 2/18/2026 | Obsidian Cio LLC | 1,985 | $142K | 0.2% | -57.9% | 0.001% | |
| 2/18/2026 | Coastal Bridge Advisors LLC | 5,759 | $413K | 0.0% | +10.3% | 0.004% | |
| 2/18/2026 | Empowered Funds LLC | 6,887 | $494K | 0.0% | -22.5% | 0.004% | |
| 2/18/2026 | XTX Topco Ltd | 11,163 | $801K | 0.0% | -17.5% | 0.007% | |
| 2/18/2026 | Wellington Management Group LLP | 254,300 | $18.25M | 0.0% | -43.6% | 0.163% | |
| 2/18/2026 | Toronto Dominion Bank | 17,985 | $1.29M | 0.0% | N/A | 0.012% | |
| 2/18/2026 | OLD Mission Capital LLC | 15,305 | $1.10M | 0.0% | -4.9% | 0.010% | |
| 2/18/2026 | Oxford Asset Management LLP | 7,728 | $555K | 0.2% | +142.7% | 0.005% | |
| 2/18/2026 | Millennium Management LLC | 50,992 | $3.66M | 0.0% | -756.3% | 0.033% | |
|
| 2/18/2026 | Man Group plc | 336,841 | $24.17M | 0.0% | N/A | 0.216% | |
| 2/18/2026 | IHT Wealth Management LLC | 5,738 | $412K | 0.0% | +14.6% | 0.004% | |
| 2/18/2026 | Inspire Investing LLC | 1,701 | $122K | 0.0% | N/A | 0.001% | |
| 2/18/2026 | Investment Management Corp of Ontario | 7,497 | $538K | 0.0% | N/A | 0.005% | |
| 2/18/2026 | Janus Henderson Group PLC | 3,600 | $258K | 0.0% | -92.0% | 0.002% | |
| 2/18/2026 | Engineers Gate Manager LP | 10,809 | $776K | 0.0% | +457.7% | 0.007% | |
| 2/18/2026 | Bridgeway Capital Management LLC | 20,450 | $1.47M | 0.0% | -25.8% | 0.013% | |
| 2/18/2026 | Alight Capital Management LP | 5,000 | $359K | 0.1% | -75.6% | 0.003% | |
| 2/17/2026 | Guggenheim Capital LLC | 5,556 | $399K | 0.0% | -17.3% | 0.004% | |
| 2/17/2026 | Schonfeld Strategic Advisors LLC | 35,247 | $2.53M | 0.0% | +474.1% | 0.023% | |